createdAt,value
2022-08-09T00:00:04.928Z,11.17
2022-08-09T00:02:34.295Z,12.73
2022-08-09T00:06:16.179Z,12.97
2022-08-09T00:07:49.619Z,11.90
2022-08-09T00:10:21.448Z,9.70
2022-08-09T00:12:52.735Z,9.80
2022-08-09T00:15:26.563Z,9.03
2022-08-09T00:18:11.977Z,9.37
2022-08-09T00:20:42.236Z,10.80
2022-08-09T00:23:56.554Z,11.80
2022-08-09T00:26:08.700Z,16.73
2022-08-09T00:28:39.490Z,16.80
2022-08-09T00:31:09.305Z,12.37
2022-08-09T00:33:55.303Z,8.20
2022-08-09T00:36:29.761Z,11.57
2022-08-09T00:38:58.727Z,7.23
2022-08-09T00:44:13.797Z,11.70
2022-08-09T00:44:27.093Z,7.77
2022-08-09T00:47:05.076Z,5.87
2022-08-09T00:49:36.749Z,6.00
2022-08-09T00:52:06.207Z,8.57
2022-08-09T00:54:45.517Z,11.97
2022-08-09T00:57:13.666Z,13.47
2022-08-09T00:59:52.291Z,12.20
2022-08-09T01:02:27.285Z,13.10
2022-08-09T01:04:56.973Z,9.33
2022-08-09T01:08:00.420Z,7.80
2022-08-09T01:10:51.361Z,14.30
2022-08-09T01:13:31.325Z,12.47
2022-08-09T01:16:11.250Z,10.10
2022-08-09T01:18:43.048Z,12.30
2022-08-09T01:21:40.956Z,13.47
2022-08-09T01:24:31.056Z,13.23
2022-08-09T01:27:10.125Z,10.77
2022-08-09T01:29:55.548Z,5.30
2022-08-09T01:32:34.038Z,7.30
2022-08-09T01:35:28.418Z,6.70
2022-08-09T01:38:07.700Z,6.57
2022-08-09T01:40:42.580Z,4.80
2022-08-09T01:43:11.059Z,7.27
2022-08-09T01:45:44.841Z,4.40
2022-08-09T01:48:19.769Z,5.33
2022-08-09T01:50:58.477Z,5.87
2022-08-09T01:53:29.274Z,6.53
2022-08-09T01:56:10.827Z,5.97
2022-08-09T01:58:38.892Z,7.33
2022-08-09T02:01:06.653Z,7.30
2022-08-09T02:03:36.468Z,5.93
2022-08-09T02:06:06.918Z,6.30
2022-08-09T02:08:57.717Z,8.93
2022-08-09T02:11:42.589Z,12.57
2022-08-09T02:14:15.785Z,10.47
2022-08-09T02:16:59.580Z,13.60
2022-08-09T02:19:43.276Z,11.20
2022-08-09T02:22:35.885Z,10.97
2022-08-09T02:25:07.894Z,9.53
2022-08-09T02:27:58.311Z,7.57
2022-08-09T02:30:27.105Z,7.57
2022-08-09T02:32:55.273Z,6.23
2022-08-09T02:36:01.186Z,7.07
2022-08-09T02:38:23.630Z,9.40
2022-08-09T02:41:00.732Z,13.40
2022-08-09T02:43:31.704Z,12.73
2022-08-09T02:46:18.767Z,6.87
2022-08-09T02:48:46.896Z,9.20
2022-08-09T02:51:20.477Z,9.10
2022-08-09T02:53:59.531Z,7.53
2022-08-09T02:56:30.363Z,8.57
2022-08-09T02:58:59.319Z,7.70
2022-08-09T03:01:29.593Z,11.57
2022-08-09T03:04:19.369Z,7.67
2022-08-09T03:06:48.786Z,9.50
2022-08-09T03:09:18.041Z,8.63
2022-08-09T03:12:05.372Z,10.80
2022-08-09T03:14:34.003Z,5.57
2022-08-09T03:17:05.692Z,5.50
2022-08-09T03:19:58.593Z,4.73
2022-08-09T03:22:25.426Z,5.53
2022-08-09T03:25:06.639Z,6.63
2022-08-09T03:27:50.628Z,6.50
2022-08-09T03:30:23.657Z,5.23
2022-08-09T03:33:12.655Z,5.87
2022-08-09T03:36:14.096Z,6.47
2022-08-09T03:38:32.280Z,6.70
2022-08-09T03:40:59.231Z,7.90
2022-08-09T03:43:31.624Z,7.30
2022-08-09T03:46:03.089Z,5.10
2022-08-09T03:48:36.109Z,7.87
2022-08-09T03:51:07.106Z,4.20
2022-08-09T03:53:54.635Z,8.10
2022-08-09T03:56:22.368Z,7.20
2022-08-09T03:58:50.228Z,9.03
2022-08-09T04:01:17.777Z,8.77
2022-08-09T04:04:02.316Z,6.33
2022-08-09T04:06:32.094Z,6.60
2022-08-09T04:09:02.675Z,9.60
2022-08-09T04:11:59.616Z,5.97
2022-08-09T04:14:53.085Z,11.73
2022-08-09T04:17:16.586Z,10.27
2022-08-09T04:19:51.491Z,7.20
2022-08-09T04:22:22.993Z,9.67
2022-08-09T04:24:49.904Z,7.47
2022-08-09T04:27:22.050Z,5.63
2022-08-09T04:29:50.075Z,7.33
2022-08-09T04:32:23.525Z,6.70
2022-08-09T04:34:58.429Z,5.17
2022-08-09T04:37:45.515Z,4.73
2022-08-09T04:40:19.242Z,4.60
2022-08-09T04:42:48.497Z,4.67
2022-08-09T04:45:16.583Z,6.97
2022-08-09T04:48:00.858Z,7.73
2022-08-09T04:50:31.897Z,5.00
2022-08-09T04:53:13.285Z,4.93
2022-08-09T04:55:58.482Z,6.73
2022-08-09T04:58:31.573Z,7.57
2022-08-09T05:01:00.150Z,9.27
2022-08-09T05:03:41.265Z,6.50
2022-08-09T05:06:27.211Z,5.13
2022-08-09T05:09:00.574Z,6.37
2022-08-09T05:11:32.062Z,8.00
2022-08-09T05:13:59.646Z,6.63
2022-08-09T05:16:31.756Z,8.53
2022-08-09T05:19:00.191Z,13.10
2022-08-09T05:21:30.038Z,12.20
2022-08-09T05:24:01.444Z,8.57
2022-08-09T05:26:45.637Z,13.53
2022-08-09T05:29:21.453Z,10.70
2022-08-09T05:31:57.585Z,7.07
2022-08-09T05:34:31.411Z,9.17
2022-08-09T05:37:01.681Z,10.63
2022-08-09T05:39:36.546Z,11.97
2022-08-09T05:42:18.004Z,13.10
2022-08-09T05:44:51.334Z,15.00
2022-08-09T05:47:21.747Z,21.10
2022-08-09T05:50:26.087Z,16.40
2022-08-09T05:52:39.487Z,17.40
2022-08-09T05:55:08.949Z,15.77
2022-08-09T05:57:55.954Z,10.00
2022-08-09T06:00:29.967Z,19.80
2022-08-09T06:03:01.787Z,15.73
2022-08-09T06:05:57.868Z,15.90
2022-08-09T06:08:19.344Z,16.77
2022-08-09T06:10:51.507Z,19.50
2022-08-09T06:13:20.561Z,22.57
2022-08-09T06:15:51.253Z,17.00
2022-08-09T06:18:25.361Z,15.53
2022-08-09T06:20:57.808Z,19.37
2022-08-09T06:23:55.376Z,16.03
2022-08-09T06:26:20.059Z,20.53
2022-08-09T06:28:59.953Z,28.50
2022-08-09T06:31:39.799Z,15.77
2022-08-09T06:34:22.791Z,28.53
2022-08-09T06:36:59.354Z,17.87
2022-08-09T06:39:48.511Z,14.60
2022-08-09T06:42:24.556Z,18.73
2022-08-09T06:44:55.363Z,18.13
2022-08-09T06:47:24.828Z,16.13
2022-08-09T06:50:14.050Z,16.03
2022-08-09T06:52:48.510Z,24.37
2022-08-09T06:55:17.942Z,17.70
2022-08-09T06:58:02.462Z,19.00
2022-08-09T07:00:52.911Z,14.27
2022-08-09T07:03:18.986Z,16.70
2022-08-09T07:06:02.369Z,11.50
2022-08-09T07:08:31.518Z,20.63
2022-08-09T07:10:58.450Z,16.40
2022-08-09T07:13:28.378Z,17.30
2022-08-09T07:16:41.822Z,20.63
2022-08-09T07:18:44.273Z,29.93
2022-08-09T07:21:14.697Z,17.70
2022-08-09T07:23:56.295Z,29.50
2022-08-09T07:26:25.147Z,32.87
2022-08-09T07:29:08.409Z,27.97
2022-08-09T07:31:45.854Z,23.67
2022-08-09T07:34:20.584Z,21.97
2022-08-09T07:36:49.263Z,20.87
2022-08-09T07:39:20.639Z,23.33
2022-08-09T07:42:05.115Z,21.90
2022-08-09T07:44:51.610Z,17.90
2022-08-09T07:47:20.884Z,16.47
2022-08-09T07:50:04.345Z,17.00
2022-08-09T07:52:33.111Z,18.73
2022-08-09T07:55:03.996Z,21.60
2022-08-09T07:57:36.415Z,23.87
2022-08-09T08:00:08.922Z,17.40
2022-08-09T08:02:42.675Z,14.87
2022-08-09T08:05:17.523Z,14.43
2022-08-09T08:08:43.837Z,15.40
2022-08-09T08:10:34.298Z,10.03
2022-08-09T08:13:01.678Z,10.73
2022-08-09T08:15:37.599Z,8.43
2022-08-09T08:18:06.293Z,7.17
2022-08-09T08:20:33.605Z,8.57
2022-08-09T08:23:15.887Z,5.87
2022-08-09T08:25:48.542Z,7.60
2022-08-09T08:28:18.390Z,7.33
2022-08-09T08:30:53.647Z,7.57
2022-08-09T08:33:24.362Z,5.87
2022-08-09T08:36:00.535Z,17.00
2022-08-09T08:38:30.461Z,6.87
2022-08-09T08:40:58.291Z,7.03
2022-08-09T08:43:27.087Z,8.63
2022-08-09T08:46:31.899Z,5.83
2022-08-09T08:48:54.045Z,6.37
2022-08-09T08:51:22.905Z,4.70
2022-08-09T08:54:02.915Z,5.10
2022-08-09T08:56:35.438Z,5.33
2022-08-09T08:59:07.958Z,6.20
2022-08-09T09:01:53.019Z,4.50
2022-08-09T09:04:37.819Z,6.60
2022-08-09T09:07:15.964Z,5.20
2022-08-09T09:10:01.559Z,10.57
2022-08-09T09:12:34.151Z,8.83
2022-08-09T09:15:05.509Z,6.33
2022-08-09T09:17:48.403Z,9.40
2022-08-09T09:20:16.210Z,25.67
2022-08-09T09:23:01.749Z,17.13
2022-08-09T09:26:03.620Z,7.10
2022-08-09T09:29:02.236Z,6.67
2022-08-09T09:32:06.062Z,8.80
2022-08-09T09:34:18.543Z,21.50
2022-08-09T09:36:51.191Z,18.23
2022-08-09T09:39:23.654Z,6.83
2022-08-09T09:42:26.229Z,6.90
2022-08-09T09:45:02.949Z,5.20
2022-08-09T09:47:32.509Z,3.30
2022-08-09T09:50:13.587Z,9.47
2022-08-09T09:52:54.327Z,5.10
2022-08-09T09:55:28.744Z,2.83
2022-08-09T09:58:16.570Z,6.20
2022-08-09T10:00:59.411Z,7.40
2022-08-09T10:03:57.314Z,9.57
2022-08-09T10:06:42.926Z,6.60
2022-08-09T10:09:22.162Z,7.63
2022-08-09T10:12:14.390Z,8.10
2022-08-09T10:14:48.736Z,7.47
2022-08-09T10:17:39.427Z,10.33
2022-08-09T10:20:27.606Z,5.87
2022-08-09T10:23:17.364Z,12.53
2022-08-09T10:26:06.219Z,6.80
2022-08-09T10:28:35.964Z,4.97
2022-08-09T10:34:10.318Z,9.23
2022-08-09T10:36:39.862Z,5.53
2022-08-09T10:39:15.439Z,6.20
2022-08-09T10:41:46.171Z,7.40
2022-08-09T10:44:19.344Z,8.30
2022-08-09T10:47:28.139Z,7.57
2022-08-09T10:50:09.997Z,5.70
2022-08-09T10:53:28.531Z,9.10
2022-08-09T10:56:26.815Z,11.03
2022-08-09T10:58:59.298Z,14.57
2022-08-09T11:03:15.572Z,9.60
2022-08-09T11:04:30.551Z,9.10
2022-08-09T11:06:59.909Z,12.73
2022-08-09T11:09:41.391Z,7.57
2022-08-09T11:12:17.831Z,7.57
2022-08-09T11:14:48.681Z,6.50
2022-08-09T11:17:15.871Z,9.57
2022-08-09T11:20:22.580Z,4.97
2022-08-09T11:22:55.600Z,7.73
2022-08-09T11:25:45.374Z,7.33
2022-08-09T11:28:54.311Z,8.00
2022-08-09T11:31:49.287Z,11.30
2022-08-09T11:34:48.914Z,9.10
2022-08-09T11:37:40.742Z,16.07
2022-08-09T11:40:11.006Z,11.37
2022-08-09T11:42:52.596Z,7.93
2022-08-09T11:45:26.291Z,9.87
2022-08-09T11:48:28.106Z,11.73
2022-08-09T11:52:06.777Z,12.10
2022-08-09T11:54:01.508Z,8.10
2022-08-09T11:56:41.945Z,8.53
2022-08-09T11:59:30.379Z,9.30
2022-08-09T12:02:17.595Z,9.13
2022-08-09T12:04:58.134Z,12.73
2022-08-09T12:07:41.717Z,11.80
2022-08-09T12:10:14.312Z,8.77
2022-08-09T12:13:03.475Z,6.00
2022-08-09T12:15:50.204Z,11.60
2022-08-09T12:18:29.708Z,7.50
2022-08-09T12:21:00.360Z,7.90
2022-08-09T12:23:56.681Z,9.27
2022-08-09T12:26:25.511Z,9.43
2022-08-09T12:29:15.117Z,13.53
2022-08-09T12:32:02.365Z,11.13
2022-08-09T12:34:36.596Z,12.20
2022-08-09T12:37:21.887Z,12.33
2022-08-09T12:40:09.729Z,8.77
2022-08-09T12:42:37.371Z,15.07
2022-08-09T12:45:32.316Z,13.30
2022-08-09T12:47:53.027Z,4.80
2022-08-09T12:50:23.404Z,5.13
2022-08-09T12:53:08.512Z,6.37
2022-08-09T12:56:16.450Z,4.70
2022-08-09T12:58:27.742Z,5.43
2022-08-09T13:00:56.189Z,6.53
2022-08-09T13:03:53.665Z,5.17
2022-08-09T13:06:25.536Z,5.40
2022-08-09T13:09:14.184Z,10.00
2022-08-09T13:11:46.850Z,7.50
2022-08-09T13:14:42.090Z,7.60
2022-08-09T13:17:44.183Z,8.93
2022-08-09T13:20:13.967Z,10.33
2022-08-09T13:23:05.764Z,10.70
2022-08-09T13:25:42.960Z,8.67
2022-08-09T13:28:34.198Z,8.10
2022-08-09T13:32:15.469Z,5.00
2022-08-09T13:33:54.411Z,7.17
2022-08-09T13:36:37.388Z,8.17
2022-08-09T13:41:19.428Z,7.27
2022-08-09T13:42:12.408Z,7.10
2022-08-09T13:44:42.116Z,6.60
2022-08-09T13:47:29.092Z,6.40
2022-08-09T13:50:30.694Z,6.43
2022-08-09T13:52:58.924Z,4.70
2022-08-09T13:55:28.690Z,5.30
2022-08-09T13:57:58.424Z,11.13
2022-08-09T14:00:28.954Z,8.00
2022-08-09T14:03:04.329Z,5.83
2022-08-09T14:05:58.778Z,9.67
2022-08-09T14:08:31.905Z,9.00
2022-08-09T14:11:00.598Z,7.70
2022-08-09T14:14:22.822Z,5.97
2022-08-09T14:16:28.344Z,6.77
2022-08-09T14:18:58.087Z,8.43
2022-08-09T14:21:26.959Z,8.10
2022-08-09T14:23:57.597Z,8.50
2022-08-09T14:26:31.963Z,10.10
2022-08-09T14:29:25.758Z,8.47
2022-08-09T14:31:56.650Z,6.10
2022-08-09T14:34:31.778Z,7.57
2022-08-09T14:37:06.766Z,12.20
2022-08-09T14:39:46.157Z,7.00
2022-08-09T14:42:29.120Z,7.90
2022-08-09T14:45:01.672Z,8.47
2022-08-09T14:47:49.609Z,10.07
2022-08-09T14:50:27.465Z,7.93
2022-08-09T14:52:54.668Z,8.70
2022-08-09T14:55:21.711Z,11.60
2022-08-09T14:57:49.698Z,8.80
2022-08-09T15:00:18.092Z,9.73
2022-08-09T15:02:47.098Z,7.50
2022-08-09T15:05:16.890Z,10.17
2022-08-09T15:07:45.584Z,9.07
2022-08-09T15:10:24.754Z,13.80
2022-08-09T15:12:53.274Z,10.97
2022-08-09T15:15:21.067Z,9.37
2022-08-09T15:17:52.576Z,10.23
2022-08-09T15:21:57.455Z,10.10
2022-08-09T15:24:03.689Z,11.60
2022-08-09T15:25:58.243Z,10.60
2022-08-09T15:28:28.161Z,9.00
2022-08-09T15:31:09.855Z,15.60
2022-08-09T15:34:33.113Z,16.47
2022-08-09T15:36:28.709Z,21.30
2022-08-09T15:38:57.937Z,21.80
2022-08-09T15:41:31.427Z,9.60
2022-08-09T15:44:02.073Z,13.93
2022-08-09T15:46:33.249Z,9.27
2022-08-09T15:49:22.732Z,15.20
2022-08-09T15:52:03.493Z,23.90
2022-08-09T15:54:52.604Z,20.30
2022-08-09T15:57:34.027Z,21.20
2022-08-09T16:00:04.508Z,17.73
2022-08-09T16:02:31.487Z,15.90
2022-08-09T16:04:58.360Z,16.60
2022-08-09T16:07:29.632Z,33.50
2022-08-09T16:10:17.057Z,21.10
2022-08-09T16:12:55.300Z,14.37
2022-08-09T16:16:04.677Z,9.23
2022-08-09T16:18:09.397Z,8.10
2022-08-09T16:20:38.027Z,11.77
2022-08-09T16:23:08.563Z,11.90
2022-08-09T16:25:40.271Z,13.70
2022-08-09T16:28:08.354Z,14.70
2022-08-09T16:30:44.463Z,12.13
2022-08-09T16:33:12.314Z,16.83
2022-08-09T16:35:55.935Z,18.30
2022-08-09T16:38:25.488Z,14.60
2022-08-09T16:40:52.481Z,14.37
2022-08-09T16:43:20.896Z,12.53
2022-08-09T16:45:48.305Z,19.37
2022-08-09T16:48:39.113Z,13.57
2022-08-09T16:51:13.912Z,12.90
2022-08-09T16:56:34.567Z,12.60
2022-08-09T16:59:06.873Z,11.87
2022-08-09T17:01:37.536Z,19.83
2022-08-09T17:04:06.756Z,13.60
2022-08-09T17:08:40.585Z,10.47
2022-08-09T17:09:45.499Z,10.40
2022-08-09T17:12:09.065Z,10.07
2022-08-09T17:14:36.085Z,12.77
2022-08-09T17:17:23.349Z,8.07
2022-08-09T17:20:33.244Z,11.70
2022-08-09T17:22:50.087Z,14.27
2022-08-09T17:25:19.048Z,7.87
2022-08-09T17:27:49.149Z,14.93
2022-08-09T17:30:22.282Z,9.30
2022-08-09T17:32:53.361Z,6.27
2022-08-09T17:35:20.310Z,7.47
2022-08-09T17:38:11.820Z,8.27
2022-08-09T17:40:36.307Z,11.63
2022-08-09T17:43:32.049Z,11.17
2022-08-09T17:46:02.836Z,9.60
2022-08-09T17:48:32.380Z,7.77
2022-08-09T17:51:06.595Z,7.03
2022-08-09T17:53:52.407Z,12.67
2022-08-09T17:56:27.150Z,13.70
2022-08-09T17:58:56.031Z,9.50
2022-08-09T18:01:23.750Z,14.40
2022-08-09T18:03:54.257Z,10.17
2022-08-09T18:06:32.370Z,9.57
2022-08-09T18:09:05.539Z,6.80
2022-08-09T18:11:46.830Z,9.07
2022-08-09T18:14:22.697Z,7.87
2022-08-09T18:16:50.779Z,6.50
2022-08-09T18:20:54.437Z,7.73
2022-08-09T18:22:13.338Z,10.10
2022-08-09T18:24:47.132Z,10.37
2022-08-09T18:27:18.797Z,9.53
2022-08-09T18:30:40.884Z,5.90
2022-08-09T18:32:54.001Z,7.90
2022-08-09T18:35:58.438Z,8.20
2022-08-09T18:38:09.074Z,8.07
2022-08-09T18:40:36.149Z,7.33
2022-08-09T18:43:04.532Z,6.10
2022-08-09T18:46:47.503Z,6.70
2022-08-09T18:48:18.821Z,5.70
2022-08-09T18:50:47.299Z,5.90
2022-08-09T18:53:16.384Z,7.00
2022-08-09T18:55:56.445Z,9.63
2022-08-09T18:58:32.002Z,10.60
2022-08-09T19:01:00.554Z,9.10
2022-08-09T19:03:28.593Z,6.40
2022-08-09T19:06:03.231Z,7.27
2022-08-09T19:08:32.159Z,6.40
2022-08-09T19:10:59.432Z,4.77
2022-08-09T19:13:49.787Z,6.47
2022-08-09T19:16:13.559Z,9.23
2022-08-09T19:18:48.596Z,10.30
2022-08-09T19:21:16.745Z,9.20
2022-08-09T19:24:39.832Z,8.50
2022-08-09T19:26:35.994Z,11.90
2022-08-09T19:29:15.098Z,9.57
2022-08-09T19:31:46.381Z,8.10
2022-08-09T19:34:22.178Z,10.50
2022-08-09T19:36:54.877Z,6.40
2022-08-09T19:39:42.900Z,7.47
2022-08-09T19:42:15.010Z,5.93
2022-08-09T19:44:50.758Z,9.60
2022-08-09T19:47:23.054Z,7.40
2022-08-09T19:50:10.076Z,8.67
2022-08-09T19:52:49.654Z,8.97
2022-08-09T19:55:19.384Z,9.03
2022-08-09T19:57:47.031Z,8.03
2022-08-09T20:00:16.041Z,10.00
2022-08-09T20:04:09.656Z,10.73
2022-08-09T20:05:46.125Z,5.33
2022-08-09T20:08:16.004Z,6.07
2022-08-09T20:10:52.285Z,8.07
2022-08-09T20:13:20.749Z,8.53
2022-08-09T20:16:36.869Z,6.63
2022-08-09T20:18:35.819Z,8.00
2022-08-09T20:21:03.858Z,8.03
2022-08-09T20:23:38.833Z,8.53
2022-08-09T20:26:07.806Z,8.03
2022-08-09T20:28:48.483Z,13.23
2022-08-09T20:31:17.441Z,9.47
2022-08-09T20:33:45.669Z,7.33
2022-08-09T20:36:13.177Z,6.90
2022-08-09T20:41:35.019Z,6.00
2022-08-09T20:44:06.865Z,7.60
2022-08-09T20:46:43.001Z,9.07
2022-08-09T20:49:12.967Z,10.60
2022-08-09T20:51:42.119Z,10.67
2022-08-09T20:54:17.177Z,6.70
2022-08-09T20:56:47.143Z,9.60
2022-08-09T20:59:17.502Z,10.37
2022-08-09T21:01:50.743Z,10.43
2022-08-09T21:05:57.931Z,6.70
2022-08-09T21:07:11.415Z,14.30
2022-08-09T21:09:55.613Z,8.10
2022-08-09T21:15:23.631Z,13.50
2022-08-09T21:18:22.257Z,10.20
2022-08-09T21:20:54.144Z,11.93
2022-08-09T21:23:22.438Z,10.90
2022-08-09T21:26:03.812Z,8.43
2022-08-09T21:28:35.849Z,11.23
2022-08-09T21:31:16.994Z,8.67
2022-08-09T21:33:49.407Z,8.10
2022-08-09T21:36:20.293Z,16.97
2022-08-09T21:38:51.079Z,12.27
2022-08-09T21:41:25.654Z,10.67
2022-08-09T21:44:11.199Z,10.57
2022-08-09T21:46:38.267Z,7.23
2022-08-09T21:49:05.244Z,11.07
2022-08-09T21:51:36.188Z,11.13
2022-08-09T21:54:12.021Z,9.53
2022-08-09T21:56:44.799Z,8.53
2022-08-09T21:59:23.213Z,13.30
2022-08-09T22:02:01.264Z,10.17
2022-08-09T22:04:55.790Z,9.73
2022-08-09T22:07:23.297Z,8.97
2022-08-09T22:10:02.949Z,7.80
2022-08-09T22:12:34.837Z,8.10
2022-08-09T22:15:02.113Z,9.10
2022-08-09T22:17:32.107Z,10.00
2022-08-09T22:20:00.886Z,9.60
2022-08-09T22:22:31.267Z,9.10
2022-08-09T22:26:07.454Z,11.30
2022-08-09T22:27:48.734Z,7.57
2022-08-09T22:30:16.076Z,9.90
2022-08-09T22:32:58.346Z,9.40
2022-08-09T22:36:01.573Z,7.83
2022-08-09T22:38:12.376Z,7.97
2022-08-09T22:40:49.250Z,6.73
2022-08-09T22:44:03.275Z,8.53
2022-08-09T22:48:15.519Z,9.70
2022-08-09T22:49:02.022Z,6.30
2022-08-09T22:51:39.314Z,11.17
2022-08-09T22:54:08.208Z,7.30
2022-08-09T22:56:41.620Z,4.67
2022-08-09T22:59:55.658Z,8.30
2022-08-09T23:01:56.838Z,8.90
2022-08-09T23:04:25.495Z,7.97
2022-08-09T23:07:14.161Z,9.03
2022-08-09T23:09:43.441Z,10.70
2022-08-09T23:12:10.675Z,7.30
2022-08-09T23:14:42.223Z,6.43
2022-08-09T23:17:11.184Z,10.40
2022-08-09T23:20:06.443Z,8.20
2022-08-09T23:22:25.412Z,9.63
2022-08-09T23:24:52.454Z,9.50
2022-08-09T23:27:19.372Z,7.03
2022-08-09T23:29:46.432Z,7.63
2022-08-09T23:32:13.427Z,8.90
2022-08-09T23:34:40.640Z,6.57
2022-08-09T23:37:07.769Z,7.97
2022-08-09T23:39:34.851Z,6.83
2022-08-09T23:42:01.852Z,7.20
2022-08-09T23:44:28.916Z,7.13
2022-08-09T23:46:57.643Z,8.50
2022-08-09T23:49:28.123Z,7.53
2022-08-09T23:51:55.473Z,7.87
2022-08-09T23:54:24.414Z,9.60
2022-08-09T23:56:56.241Z,9.90
2022-08-09T23:59:25.585Z,11.93
